sensor_id;sensor_type;location;lat;lon;timestamp;P1;durP1;ratioP1;P2;durP2;ratioP2
72728;SDS011;60843;52.062;4.508;2024-02-21T00:00:34;10.15;;;1.83;;
72728;SDS011;60843;52.062;4.508;2024-02-21T00:02:59;5.05;;;1.45;;
72728;SDS011;60843;52.062;4.508;2024-02-21T00:05:27;8.02;;;1.60;;
72728;SDS011;60843;52.062;4.508;2024-02-21T00:07:52;8.43;;;1.33;;
72728;SDS011;60843;52.062;4.508;2024-02-21T00:10:18;10.02;;;1.33;;
72728;SDS011;60843;52.062;4.508;2024-02-21T00:12:43;11.73;;;1.38;;
72728;SDS011;60843;52.062;4.508;2024-02-21T00:15:09;7.32;;;1.52;;
72728;SDS011;60843;52.062;4.508;2024-02-21T00:17:34;10.63;;;1.23;;
72728;SDS011;60843;52.062;4.508;2024-02-21T00:20:00;8.30;;;1.60;;
72728;SDS011;60843;52.062;4.508;2024-02-21T00:22:25;6.97;;;1.20;;
72728;SDS011;60843;52.062;4.508;2024-02-21T00:27:19;9.50;;;1.27;;
72728;SDS011;60843;52.062;4.508;2024-02-21T00:29:44;5.05;;;1.77;;
72728;SDS011;60843;52.062;4.508;2024-02-21T00:32:10;7.72;;;1.92;;
72728;SDS011;60843;52.062;4.508;2024-02-21T00:34:36;7.32;;;1.58;;
72728;SDS011;60843;52.062;4.508;2024-02-21T00:37:01;9.18;;;1.60;;
72728;SDS011;60843;52.062;4.508;2024-02-21T00:39:26;8.82;;;0.90;;
72728;SDS011;60843;52.062;4.508;2024-02-21T00:41:52;9.02;;;1.83;;
72728;SDS011;60843;52.062;4.508;2024-02-21T00:44:18;17.10;;;1.50;;
72728;SDS011;60843;52.062;4.508;2024-02-21T00:46:43;6.28;;;1.38;;
72728;SDS011;60843;52.062;4.508;2024-02-21T00:49:09;10.13;;;1.97;;
72728;SDS011;60843;52.062;4.508;2024-02-21T00:51:34;7.50;;;1.23;;
72728;SDS011;60843;52.062;4.508;2024-02-21T00:54:00;8.23;;;1.58;;
72728;SDS011;60843;52.062;4.508;2024-02-21T00:56:26;4.35;;;1.17;;
72728;SDS011;60843;52.062;4.508;2024-02-21T00:58:51;3.17;;;1.25;;
72728;SDS011;60843;52.062;4.508;2024-02-21T01:01:20;7.28;;;1.00;;
72728;SDS011;60843;52.062;4.508;2024-02-21T01:03:47;13.65;;;2.13;;
72728;SDS011;60843;52.062;4.508;2024-02-21T01:06:13;8.88;;;1.27;;
72728;SDS011;60843;52.062;4.508;2024-02-21T01:08:38;5.10;;;1.75;;
72728;SDS011;60843;52.062;4.508;2024-02-21T01:11:04;7.25;;;1.52;;
72728;SDS011;60843;52.062;4.508;2024-02-21T01:13:30;7.20;;;1.17;;
72728;SDS011;60843;52.062;4.508;2024-02-21T01:15:55;6.30;;;2.00;;
72728;SDS011;60843;52.062;4.508;2024-02-21T01:18:20;11.47;;;1.90;;
72728;SDS011;60843;52.062;4.508;2024-02-21T01:20:46;9.27;;;1.23;;
72728;SDS011;60843;52.062;4.508;2024-02-21T01:23:11;10.13;;;1.85;;
72728;SDS011;60843;52.062;4.508;2024-02-21T01:25:37;4.28;;;1.08;;
72728;SDS011;60843;52.062;4.508;2024-02-21T01:28:04;4.90;;;1.48;;
72728;SDS011;60843;52.062;4.508;2024-02-21T01:30:29;11.40;;;2.10;;
72728;SDS011;60843;52.062;4.508;2024-02-21T01:32:55;5.82;;;1.55;;
72728;SDS011;60843;52.062;4.508;2024-02-21T01:35:20;8.65;;;1.27;;
72728;SDS011;60843;52.062;4.508;2024-02-21T01:37:45;13.47;;;2.07;;
72728;SDS011;60843;52.062;4.508;2024-02-21T01:40:11;2.25;;;0.55;;
72728;SDS011;60843;52.062;4.508;2024-02-21T01:42:40;7.43;;;1.67;;
72728;SDS011;60843;52.062;4.508;2024-02-21T01:45:06;5.18;;;1.38;;
72728;SDS011;60843;52.062;4.508;2024-02-21T01:47:31;5.57;;;1.05;;
72728;SDS011;60843;52.062;4.508;2024-02-21T01:49:57;11.98;;;2.03;;
72728;SDS011;60843;52.062;4.508;2024-02-21T01:52:22;8.73;;;1.83;;
72728;SDS011;60843;52.062;4.508;2024-02-21T01:54:48;4.38;;;0.77;;
72728;SDS011;60843;52.062;4.508;2024-02-21T01:57:14;6.25;;;1.65;;
72728;SDS011;60843;52.062;4.508;2024-02-21T01:59:40;10.10;;;2.00;;
72728;SDS011;60843;52.062;4.508;2024-02-21T02:02:05;2.63;;;1.05;;
72728;SDS011;60843;52.062;4.508;2024-02-21T02:04:31;9.25;;;1.92;;
72728;SDS011;60843;52.062;4.508;2024-02-21T02:06:57;5.93;;;1.20;;
72728;SDS011;60843;52.062;4.508;2024-02-21T02:09:25;13.07;;;1.60;;
72728;SDS011;60843;52.062;4.508;2024-02-21T02:11:50;11.55;;;1.52;;
72728;SDS011;60843;52.062;4.508;2024-02-21T02:14:17;7.53;;;1.52;;
72728;SDS011;60843;52.062;4.508;2024-02-21T02:16:45;12.60;;;1.30;;
72728;SDS011;60843;52.062;4.508;2024-02-21T02:19:22;8.13;;;2.13;;
72728;SDS011;60843;52.062;4.508;2024-02-21T02:27:00;4.75;;;1.48;;
72728;SDS011;60843;52.062;4.508;2024-02-21T02:29:26;7.75;;;1.67;;
72728;SDS011;60843;52.062;4.508;2024-02-21T02:31:54;9.60;;;1.50;;
72728;SDS011;60843;52.062;4.508;2024-02-21T02:34:19;12.57;;;2.03;;
72728;SDS011;60843;52.062;4.508;2024-02-21T02:36:45;12.95;;;1.90;;
72728;SDS011;60843;52.062;4.508;2024-02-21T02:39:10;15.98;;;2.30;;
72728;SDS011;60843;52.062;4.508;2024-02-21T02:41:36;3.55;;;1.70;;
72728;SDS011;60843;52.062;4.508;2024-02-21T02:44:01;10.43;;;1.55;;
72728;SDS011;60843;52.062;4.508;2024-02-21T02:46:27;11.13;;;1.83;;
72728;SDS011;60843;52.062;4.508;2024-02-21T02:48:52;10.37;;;2.07;;
72728;SDS011;60843;52.062;4.508;2024-02-21T02:51:17;14.37;;;2.43;;
72728;SDS011;60843;52.062;4.508;2024-02-21T02:53:43;9.82;;;1.67;;
72728;SDS011;60843;52.062;4.508;2024-02-21T02:56:13;5.93;;;2.03;;
72728;SDS011;60843;52.062;4.508;2024-02-21T02:58:44;10.52;;;2.22;;
72728;SDS011;60843;52.062;4.508;2024-02-21T03:01:10;9.48;;;1.75;;
72728;SDS011;60843;52.062;4.508;2024-02-21T03:03:35;8.77;;;2.20;;
72728;SDS011;60843;52.062;4.508;2024-02-21T03:06:01;10.23;;;2.05;;
72728;SDS011;60843;52.062;4.508;2024-02-21T03:08:26;10.75;;;2.03;;
72728;SDS011;60843;52.062;4.508;2024-02-21T03:10:52;8.33;;;1.40;;
72728;SDS011;60843;52.062;4.508;2024-02-21T03:13:17;10.27;;;1.75;;
72728;SDS011;60843;52.062;4.508;2024-02-21T03:15:43;10.95;;;1.65;;
72728;SDS011;60843;52.062;4.508;2024-02-21T03:18:08;10.88;;;2.38;;
72728;SDS011;60843;52.062;4.508;2024-02-21T03:20:34;12.90;;;2.00;;
72728;SDS011;60843;52.062;4.508;2024-02-21T03:22:59;20.77;;;2.65;;
72728;SDS011;60843;52.062;4.508;2024-02-21T03:25:25;15.32;;;2.15;;
72728;SDS011;60843;52.062;4.508;2024-02-21T03:27:50;11.75;;;1.98;;
72728;SDS011;60843;52.062;4.508;2024-02-21T03:30:16;14.27;;;2.00;;
72728;SDS011;60843;52.062;4.508;2024-02-21T03:32:44;9.50;;;2.20;;
72728;SDS011;60843;52.062;4.508;2024-02-21T03:35:09;6.85;;;1.92;;
72728;SDS011;60843;52.062;4.508;2024-02-21T03:37:35;11.93;;;2.43;;
72728;SDS011;60843;52.062;4.508;2024-02-21T03:40:01;11.27;;;2.45;;
72728;SDS011;60843;52.062;4.508;2024-02-21T03:42:27;7.40;;;2.03;;
72728;SDS011;60843;52.062;4.508;2024-02-21T03:44:54;12.15;;;2.03;;
72728;SDS011;60843;52.062;4.508;2024-02-21T03:47:20;40.50;;;12.40;;
72728;SDS011;60843;52.062;4.508;2024-02-21T03:49:46;36.15;;;8.23;;
72728;SDS011;60843;52.062;4.508;2024-02-21T03:52:11;42.60;;;12.27;;
72728;SDS011;60843;52.062;4.508;2024-02-21T03:54:37;18.13;;;4.03;;
72728;SDS011;60843;52.062;4.508;2024-02-21T03:57:02;9.60;;;2.35;;
72728;SDS011;60843;52.062;4.508;2024-02-21T03:59:29;7.63;;;2.22;;
72728;SDS011;60843;52.062;4.508;2024-02-21T04:01:55;8.30;;;2.50;;
72728;SDS011;60843;52.062;4.508;2024-02-21T04:04:21;6.97;;;1.92;;
72728;SDS011;60843;52.062;4.508;2024-02-21T04:06:47;4.10;;;2.17;;
72728;SDS011;60843;52.062;4.508;2024-02-21T04:09:13;6.13;;;2.35;;
72728;SDS011;60843;52.062;4.508;2024-02-21T04:11:38;13.93;;;2.35;;
72728;SDS011;60843;52.062;4.508;2024-02-21T04:14:04;6.20;;;2.50;;
72728;SDS011;60843;52.062;4.508;2024-02-21T04:16:29;11.82;;;2.40;;
72728;SDS011;60843;52.062;4.508;2024-02-21T04:18:55;8.27;;;2.05;;
72728;SDS011;60843;52.062;4.508;2024-02-21T04:21:20;6.82;;;2.28;;
72728;SDS011;60843;52.062;4.508;2024-02-21T04:23:45;9.37;;;2.50;;
72728;SDS011;60843;52.062;4.508;2024-02-21T04:26:11;6.65;;;2.40;;
72728;SDS011;60843;52.062;4.508;2024-02-21T04:28:36;8.25;;;2.95;;
72728;SDS011;60843;52.062;4.508;2024-02-21T04:31:02;8.70;;;2.67;;
72728;SDS011;60843;52.062;4.508;2024-02-21T04:33:27;8.32;;;2.42;;
72728;SDS011;60843;52.062;4.508;2024-02-21T04:35:53;6.83;;;2.37;;
72728;SDS011;60843;52.062;4.508;2024-02-21T04:38:20;7.57;;;2.72;;
72728;SDS011;60843;52.062;4.508;2024-02-21T04:40:45;8.65;;;2.80;;
72728;SDS011;60843;52.062;4.508;2024-02-21T04:43:11;10.90;;;3.22;;
72728;SDS011;60843;52.062;4.508;2024-02-21T04:45:40;9.77;;;2.90;;
72728;SDS011;60843;52.062;4.508;2024-02-21T04:48:05;9.63;;;3.15;;
72728;SDS011;60843;52.062;4.508;2024-02-21T04:50:31;7.28;;;3.55;;
72728;SDS011;60843;52.062;4.508;2024-02-21T04:52:56;12.90;;;3.53;;
72728;SDS011;60843;52.062;4.508;2024-02-21T04:55:22;8.75;;;3.15;;
72728;SDS011;60843;52.062;4.508;2024-02-21T04:57:47;11.35;;;3.38;;
72728;SDS011;60843;52.062;4.508;2024-02-21T05:00:13;8.32;;;3.22;;
72728;SDS011;60843;52.062;4.508;2024-02-21T05:02:39;8.55;;;3.67;;
72728;SDS011;60843;52.062;4.508;2024-02-21T05:05:04;9.27;;;3.78;;
72728;SDS011;60843;52.062;4.508;2024-02-21T05:07:30;9.77;;;3.13;;
72728;SDS011;60843;52.062;4.508;2024-02-21T05:09:56;8.50;;;3.60;;
72728;SDS011;60843;52.062;4.508;2024-02-21T05:12:22;7.13;;;3.33;;
72728;SDS011;60843;52.062;4.508;2024-02-21T05:14:47;12.48;;;4.22;;
72728;SDS011;60843;52.062;4.508;2024-02-21T05:17:12;12.37;;;3.33;;
72728;SDS011;60843;52.062;4.508;2024-02-21T05:19:38;11.45;;;3.90;;
72728;SDS011;60843;52.062;4.508;2024-02-21T05:22:03;8.83;;;3.60;;
72728;SDS011;60843;52.062;4.508;2024-02-21T05:24:29;6.32;;;3.25;;
72728;SDS011;60843;52.062;4.508;2024-02-21T05:26:54;8.43;;;4.13;;
72728;SDS011;60843;52.062;4.508;2024-02-21T05:29:20;11.63;;;3.83;;
72728;SDS011;60843;52.062;4.508;2024-02-21T05:34:18;5.25;;;2.65;;
72728;SDS011;60843;52.062;4.508;2024-02-21T05:36:43;12.38;;;4.20;;
72728;SDS011;60843;52.062;4.508;2024-02-21T05:39:09;12.45;;;3.45;;
72728;SDS011;60843;52.062;4.508;2024-02-21T05:41:35;6.25;;;4.00;;
72728;SDS011;60843;52.062;4.508;2024-02-21T05:44:00;11.10;;;4.07;;
72728;SDS011;60843;52.062;4.508;2024-02-21T05:46:26;6.80;;;2.33;;
72728;SDS011;60843;52.062;4.508;2024-02-21T05:48:51;8.82;;;3.80;;
72728;SDS011;60843;52.062;4.508;2024-02-21T05:51:17;6.40;;;3.42;;
72728;SDS011;60843;52.062;4.508;2024-02-21T05:53:42;8.93;;;3.95;;
72728;SDS011;60843;52.062;4.508;2024-02-21T05:56:11;9.60;;;4.53;;
72728;SDS011;60843;52.062;4.508;2024-02-21T05:58:38;13.70;;;4.95;;
72728;SDS011;60843;52.062;4.508;2024-02-21T06:01:04;13.57;;;4.93;;
72728;SDS011;60843;52.062;4.508;2024-02-21T06:03:31;10.73;;;5.15;;
72728;SDS011;60843;52.062;4.508;2024-02-21T06:05:57;9.07;;;4.15;;
72728;SDS011;60843;52.062;4.508;2024-02-21T06:08:23;10.48;;;5.18;;
72728;SDS011;60843;52.062;4.508;2024-02-21T06:11:04;8.13;;;4.88;;
72728;SDS011;60843;52.062;4.508;2024-02-21T06:13:29;9.13;;;4.53;;
72728;SDS011;60843;52.062;4.508;2024-02-21T06:16:04;11.98;;;5.18;;
72728;SDS011;60843;52.062;4.508;2024-02-21T06:18:31;12.60;;;5.30;;
72728;SDS011;60843;52.062;4.508;2024-02-21T06:20:56;12.45;;;5.55;;
72728;SDS011;60843;52.062;4.508;2024-02-21T06:23:22;11.48;;;5.85;;
72728;SDS011;60843;52.062;4.508;2024-02-21T06:25:47;9.65;;;5.15;;
72728;SDS011;60843;52.062;4.508;2024-02-21T06:28:13;13.48;;;5.88;;
72728;SDS011;60843;52.062;4.508;2024-02-21T06:30:39;14.38;;;5.78;;
72728;SDS011;60843;52.062;4.508;2024-02-21T06:33:05;15.57;;;6.22;;
72728;SDS011;60843;52.062;4.508;2024-02-21T06:35:30;12.00;;;6.05;;
72728;SDS011;60843;52.062;4.508;2024-02-21T06:37:56;14.82;;;6.60;;
72728;SDS011;60843;52.062;4.508;2024-02-21T06:40:22;18.85;;;6.88;;
72728;SDS011;60843;52.062;4.508;2024-02-21T06:42:48;12.13;;;5.85;;
72728;SDS011;60843;52.062;4.508;2024-02-21T06:45:14;14.05;;;5.72;;
72728;SDS011;60843;52.062;4.508;2024-02-21T06:47:40;12.93;;;6.50;;
72728;SDS011;60843;52.062;4.508;2024-02-21T06:50:06;11.43;;;5.65;;
72728;SDS011;60843;52.062;4.508;2024-02-21T06:52:32;12.82;;;5.97;;
72728;SDS011;60843;52.062;4.508;2024-02-21T06:54:57;10.77;;;4.78;;
72728;SDS011;60843;52.062;4.508;2024-02-21T06:57:23;12.00;;;5.70;;
72728;SDS011;60843;52.062;4.508;2024-02-21T06:59:48;11.75;;;5.03;;
72728;SDS011;60843;52.062;4.508;2024-02-21T07:02:14;11.48;;;5.68;;
72728;SDS011;60843;52.062;4.508;2024-02-21T07:04:40;12.20;;;5.43;;
72728;SDS011;60843;52.062;4.508;2024-02-21T07:07:05;11.05;;;5.75;;
72728;SDS011;60843;52.062;4.508;2024-02-21T07:09:32;8.25;;;4.75;;
72728;SDS011;60843;52.062;4.508;2024-02-21T07:11:58;13.05;;;5.57;;
72728;SDS011;60843;52.062;4.508;2024-02-21T07:14:23;16.77;;;4.70;;
72728;SDS011;60843;52.062;4.508;2024-02-21T07:16:50;13.02;;;5.60;;
72728;SDS011;60843;52.062;4.508;2024-02-21T07:19:15;11.38;;;5.95;;
72728;SDS011;60843;52.062;4.508;2024-02-21T07:21:41;10.27;;;5.47;;
72728;SDS011;60843;52.062;4.508;2024-02-21T07:24:07;8.40;;;4.63;;
72728;SDS011;60843;52.062;4.508;2024-02-21T07:26:33;9.00;;;5.07;;
72728;SDS011;60843;52.062;4.508;2024-02-21T07:28:59;13.20;;;5.65;;
72728;SDS011;60843;52.062;4.508;2024-02-21T07:31:25;15.77;;;5.25;;
72728;SDS011;60843;52.062;4.508;2024-02-21T07:33:50;9.15;;;4.43;;
72728;SDS011;60843;52.062;4.508;2024-02-21T07:36:16;9.35;;;4.80;;
72728;SDS011;60843;52.062;4.508;2024-02-21T07:38:55;12.02;;;5.47;;
72728;SDS011;60843;52.062;4.508;2024-02-21T07:41:21;11.90;;;5.82;;
72728;SDS011;60843;52.062;4.508;2024-02-21T07:43:46;13.05;;;4.95;;
72728;SDS011;60843;52.062;4.508;2024-02-21T07:46:13;9.35;;;4.40;;
72728;SDS011;60843;52.062;4.508;2024-02-21T07:48:39;11.73;;;5.15;;
72728;SDS011;60843;52.062;4.508;2024-02-21T07:51:04;16.80;;;5.75;;
72728;SDS011;60843;52.062;4.508;2024-02-21T07:53:30;10.80;;;5.05;;
72728;SDS011;60843;52.062;4.508;2024-02-21T07:55:56;15.40;;;5.40;;
72728;SDS011;60843;52.062;4.508;2024-02-21T07:58:21;15.15;;;6.13;;
72728;SDS011;60843;52.062;4.508;2024-02-21T08:00:47;14.85;;;5.47;;
72728;SDS011;60843;52.062;4.508;2024-02-21T08:03:15;17.60;;;5.95;;
72728;SDS011;60843;52.062;4.508;2024-02-21T08:05:42;14.93;;;5.72;;
72728;SDS011;60843;52.062;4.508;2024-02-21T08:08:08;14.35;;;6.28;;
72728;SDS011;60843;52.062;4.508;2024-02-21T08:10:34;24.23;;;6.28;;
72728;SDS011;60843;52.062;4.508;2024-02-21T08:13:00;15.45;;;6.35;;
72728;SDS011;60843;52.062;4.508;2024-02-21T08:15:25;11.90;;;5.85;;
72728;SDS011;60843;52.062;4.508;2024-02-21T08:17:54;14.38;;;6.18;;
72728;SDS011;60843;52.062;4.508;2024-02-21T08:20:24;14.70;;;6.03;;
72728;SDS011;60843;52.062;4.508;2024-02-21T08:22:49;19.17;;;6.60;;
72728;SDS011;60843;52.062;4.508;2024-02-21T08:25:15;15.75;;;6.35;;
72728;SDS011;60843;52.062;4.508;2024-02-21T08:27:40;12.15;;;5.28;;
72728;SDS011;60843;52.062;4.508;2024-02-21T08:30:06;13.07;;;5.88;;
72728;SDS011;60843;52.062;4.508;2024-02-21T08:32:32;18.10;;;5.88;;
72728;SDS011;60843;52.062;4.508;2024-02-21T08:35:00;10.57;;;5.65;;
72728;SDS011;60843;52.062;4.508;2024-02-21T08:37:27;11.20;;;6.30;;
72728;SDS011;60843;52.062;4.508;2024-02-21T08:39:52;10.10;;;4.85;;
72728;SDS011;60843;52.062;4.508;2024-02-21T08:42:18;14.52;;;5.75;;
72728;SDS011;60843;52.062;4.508;2024-02-21T08:44:44;13.55;;;4.72;;
72728;SDS011;60843;52.062;4.508;2024-02-21T08:47:09;11.15;;;5.78;;
72728;SDS011;60843;52.062;4.508;2024-02-21T08:49:35;13.55;;;5.85;;
72728;SDS011;60843;52.062;4.508;2024-02-21T08:52:01;14.43;;;6.47;;
72728;SDS011;60843;52.062;4.508;2024-02-21T08:54:27;15.93;;;5.55;;
72728;SDS011;60843;52.062;4.508;2024-02-21T08:56:53;15.80;;;5.97;;
72728;SDS011;60843;52.062;4.508;2024-02-21T08:59:19;11.98;;;5.32;;
72728;SDS011;60843;52.062;4.508;2024-02-21T09:01:45;12.77;;;6.35;;
72728;SDS011;60843;52.062;4.508;2024-02-21T09:04:11;12.10;;;6.05;;
72728;SDS011;60843;52.062;4.508;2024-02-21T09:06:37;16.45;;;7.25;;
72728;SDS011;60843;52.062;4.508;2024-02-21T09:09:06;16.80;;;7.63;;
72728;SDS011;60843;52.062;4.508;2024-02-21T09:11:33;14.38;;;5.95;;
72728;SDS011;60843;52.062;4.508;2024-02-21T09:13:59;12.98;;;7.28;;
72728;SDS011;60843;52.062;4.508;2024-02-21T09:16:24;15.38;;;6.95;;
72728;SDS011;60843;52.062;4.508;2024-02-21T09:18:50;9.90;;;5.93;;
72728;SDS011;60843;52.062;4.508;2024-02-21T09:21:25;14.00;;;6.75;;
72728;SDS011;60843;52.062;4.508;2024-02-21T09:23:50;13.82;;;6.78;;
72728;SDS011;60843;52.062;4.508;2024-02-21T09:26:16;13.80;;;6.25;;
72728;SDS011;60843;52.062;4.508;2024-02-21T09:28:45;16.55;;;6.80;;
72728;SDS011;60843;52.062;4.508;2024-02-21T09:31:10;13.20;;;5.82;;
72728;SDS011;60843;52.062;4.508;2024-02-21T09:33:36;12.07;;;5.60;;
72728;SDS011;60843;52.062;4.508;2024-02-21T09:36:02;13.27;;;5.97;;
72728;SDS011;60843;52.062;4.508;2024-02-21T09:38:30;17.98;;;6.93;;
72728;SDS011;60843;52.062;4.508;2024-02-21T09:40:58;10.23;;;6.30;;
72728;SDS011;60843;52.062;4.508;2024-02-21T09:43:26;11.40;;;5.53;;
72728;SDS011;60843;52.062;4.508;2024-02-21T09:45:51;10.23;;;5.45;;
72728;SDS011;60843;52.062;4.508;2024-02-21T09:51:02;10.68;;;5.38;;
72728;SDS011;60843;52.062;4.508;2024-02-21T09:53:28;12.00;;;4.78;;
72728;SDS011;60843;52.062;4.508;2024-02-21T09:55:53;17.42;;;5.30;;
72728;SDS011;60843;52.062;4.508;2024-02-21T09:58:20;13.23;;;4.60;;
72728;SDS011;60843;52.062;4.508;2024-02-21T10:00:46;7.43;;;3.45;;
72728;SDS011;60843;52.062;4.508;2024-02-21T10:03:12;8.27;;;4.88;;
72728;SDS011;60843;52.062;4.508;2024-02-21T10:05:38;7.72;;;4.28;;
72728;SDS011;60843;52.062;4.508;2024-02-21T10:08:04;9.90;;;4.85;;
72728;SDS011;60843;52.062;4.508;2024-02-21T10:10:35;9.68;;;3.67;;
72728;SDS011;60843;52.062;4.508;2024-02-21T10:13:05;11.73;;;4.85;;
72728;SDS011;60843;52.062;4.508;2024-02-21T10:15:31;8.35;;;4.82;;
72728;SDS011;60843;52.062;4.508;2024-02-21T10:18:00;12.18;;;5.40;;
72728;SDS011;60843;52.062;4.508;2024-02-21T10:20:26;10.10;;;5.75;;
72728;SDS011;60843;52.062;4.508;2024-02-21T10:25:33;11.93;;;5.15;;
72728;SDS011;60843;52.062;4.508;2024-02-21T10:28:00;12.15;;;5.55;;
72728;SDS011;60843;52.062;4.508;2024-02-21T10:30:27;8.65;;;4.63;;
72728;SDS011;60843;52.062;4.508;2024-02-21T10:32:53;11.02;;;4.75;;
72728;SDS011;60843;52.062;4.508;2024-02-21T10:35:28;11.52;;;5.05;;
72728;SDS011;60843;52.062;4.508;2024-02-21T10:37:55;7.22;;;4.30;;
72728;SDS011;60843;52.062;4.508;2024-02-21T10:40:24;8.80;;;4.55;;
72728;SDS011;60843;52.062;4.508;2024-02-21T10:43:00;5.60;;;2.95;;
72728;SDS011;60843;52.062;4.508;2024-02-21T10:45:28;7.20;;;3.35;;
72728;SDS011;60843;52.062;4.508;2024-02-21T10:48:10;7.82;;;4.00;;
72728;SDS011;60843;52.062;4.508;2024-02-21T10:56:04;7.97;;;3.78;;
72728;SDS011;60843;52.062;4.508;2024-02-21T10:58:37;8.98;;;4.50;;
72728;SDS011;60843;52.062;4.508;2024-02-21T11:01:03;9.85;;;4.32;;
72728;SDS011;60843;52.062;4.508;2024-02-21T11:03:29;11.82;;;5.13;;
72728;SDS011;60843;52.062;4.508;2024-02-21T11:05:55;7.78;;;4.30;;
72728;SDS011;60843;52.062;4.508;2024-02-21T11:08:21;9.32;;;5.05;;
72728;SDS011;60843;52.062;4.508;2024-02-21T11:10:47;11.38;;;4.57;;
72728;SDS011;60843;52.062;4.508;2024-02-21T11:13:12;12.60;;;5.00;;
72728;SDS011;60843;52.062;4.508;2024-02-21T11:15:39;8.10;;;4.07;;
72728;SDS011;60843;52.062;4.508;2024-02-21T11:18:05;11.18;;;5.05;;
72728;SDS011;60843;52.062;4.508;2024-02-21T11:20:37;10.32;;;5.65;;
72728;SDS011;60843;52.062;4.508;2024-02-21T11:23:03;5.53;;;3.13;;
72728;SDS011;60843;52.062;4.508;2024-02-21T11:25:29;9.50;;;4.47;;
72728;SDS011;60843;52.062;4.508;2024-02-21T11:30:26;7.85;;;3.95;;
72728;SDS011;60843;52.062;4.508;2024-02-21T11:33:02;8.70;;;4.32;;
72728;SDS011;60843;52.062;4.508;2024-02-21T11:35:34;9.77;;;5.22;;
72728;SDS011;60843;52.062;4.508;2024-02-21T11:38:10;8.35;;;4.13;;
72728;SDS011;60843;52.062;4.508;2024-02-21T11:40:43;11.20;;;5.00;;
72728;SDS011;60843;52.062;4.508;2024-02-21T11:43:10;10.18;;;4.95;;
72728;SDS011;60843;52.062;4.508;2024-02-21T11:45:35;7.57;;;4.13;;
72728;SDS011;60843;52.062;4.508;2024-02-21T11:48:01;8.45;;;4.47;;
72728;SDS011;60843;52.062;4.508;2024-02-21T11:50:30;11.25;;;4.47;;
72728;SDS011;60843;52.062;4.508;2024-02-21T11:52:56;8.85;;;5.05;;
72728;SDS011;60843;52.062;4.508;2024-02-21T11:55:22;6.82;;;4.60;;
72728;SDS011;60843;52.062;4.508;2024-02-21T11:57:48;9.65;;;4.45;;
72728;SDS011;60843;52.062;4.508;2024-02-21T12:00:14;9.00;;;4.57;;
72728;SDS011;60843;52.062;4.508;2024-02-21T12:02:41;7.57;;;4.63;;
72728;SDS011;60843;52.062;4.508;2024-02-21T12:05:06;7.68;;;4.70;;
72728;SDS011;60843;52.062;4.508;2024-02-21T12:07:32;5.75;;;2.55;;
72728;SDS011;60843;52.062;4.508;2024-02-21T12:09:59;8.10;;;4.38;;
72728;SDS011;60843;52.062;4.508;2024-02-21T12:12:25;7.18;;;4.25;;
72728;SDS011;60843;52.062;4.508;2024-02-21T12:14:57;8.13;;;4.15;;
72728;SDS011;60843;52.062;4.508;2024-02-21T12:17:25;8.32;;;4.63;;
72728;SDS011;60843;52.062;4.508;2024-02-21T12:19:51;7.57;;;3.47;;
72728;SDS011;60843;52.062;4.508;2024-02-21T12:22:18;4.47;;;2.47;;
72728;SDS011;60843;52.062;4.508;2024-02-21T12:24:44;4.47;;;2.67;;
72728;SDS011;60843;52.062;4.508;2024-02-21T12:29:38;6.70;;;3.85;;
72728;SDS011;60843;52.062;4.508;2024-02-21T12:32:03;6.55;;;3.70;;
72728;SDS011;60843;52.062;4.508;2024-02-21T12:34:29;6.43;;;3.88;;
72728;SDS011;60843;52.062;4.508;2024-02-21T12:36:57;8.52;;;4.30;;
72728;SDS011;60843;52.062;4.508;2024-02-21T12:39:23;8.45;;;4.65;;
72728;SDS011;60843;52.062;4.508;2024-02-21T12:41:48;11.52;;;4.75;;
72728;SDS011;60843;52.062;4.508;2024-02-21T12:44:14;8.07;;;4.53;;
72728;SDS011;60843;52.062;4.508;2024-02-21T12:46:41;5.97;;;4.03;;
72728;SDS011;60843;52.062;4.508;2024-02-21T12:49:07;12.82;;;4.43;;
72728;SDS011;60843;52.062;4.508;2024-02-21T12:51:33;8.50;;;4.70;;
72728;SDS011;60843;52.062;4.508;2024-02-21T12:53:59;7.30;;;4.68;;
72728;SDS011;60843;52.062;4.508;2024-02-21T12:56:25;7.68;;;4.25;;
72728;SDS011;60843;52.062;4.508;2024-02-21T12:58:52;11.13;;;5.07;;
72728;SDS011;60843;52.062;4.508;2024-02-21T13:01:18;10.65;;;4.30;;
72728;SDS011;60843;52.062;4.508;2024-02-21T13:03:44;5.68;;;3.85;;
72728;SDS011;60843;52.062;4.508;2024-02-21T13:06:09;10.27;;;4.35;;
72728;SDS011;60843;52.062;4.508;2024-02-21T13:08:39;8.10;;;4.78;;
72728;SDS011;60843;52.062;4.508;2024-02-21T13:11:05;11.18;;;4.88;;
72728;SDS011;60843;52.062;4.508;2024-02-21T13:13:33;9.60;;;5.05;;
72728;SDS011;60843;52.062;4.508;2024-02-21T13:15:58;10.50;;;5.38;;
72728;SDS011;60843;52.062;4.508;2024-02-21T13:18:24;9.60;;;5.20;;
72728;SDS011;60843;52.062;4.508;2024-02-21T13:20:50;8.73;;;4.85;;
72728;SDS011;60843;52.062;4.508;2024-02-21T13:23:15;10.23;;;4.53;;
72728;SDS011;60843;52.062;4.508;2024-02-21T13:25:41;8.27;;;3.35;;
72728;SDS011;60843;52.062;4.508;2024-02-21T13:28:06;8.45;;;4.60;;
72728;SDS011;60843;52.062;4.508;2024-02-21T13:30:33;9.25;;;4.22;;
72728;SDS011;60843;52.062;4.508;2024-02-21T13:32:59;7.95;;;3.85;;
72728;SDS011;60843;52.062;4.508;2024-02-21T13:35:27;13.00;;;4.88;;
72728;SDS011;60843;52.062;4.508;2024-02-21T13:37:53;8.98;;;4.35;;
72728;SDS011;60843;52.062;4.508;2024-02-21T13:40:18;5.67;;;3.27;;
72728;SDS011;60843;52.062;4.508;2024-02-21T13:42:45;12.20;;;5.57;;
72728;SDS011;60843;52.062;4.508;2024-02-21T13:45:10;9.30;;;4.82;;
72728;SDS011;60843;52.062;4.508;2024-02-21T13:47:36;10.68;;;5.50;;
72728;SDS011;60843;52.062;4.508;2024-02-21T13:50:03;11.00;;;4.32;;
72728;SDS011;60843;52.062;4.508;2024-02-21T13:52:32;9.82;;;4.38;;
72728;SDS011;60843;52.062;4.508;2024-02-21T13:54:58;9.88;;;5.13;;
72728;SDS011;60843;52.062;4.508;2024-02-21T13:57:24;8.57;;;5.03;;
72728;SDS011;60843;52.062;4.508;2024-02-21T13:59:50;6.80;;;3.15;;
72728;SDS011;60843;52.062;4.508;2024-02-21T14:02:16;6.75;;;3.55;;
72728;SDS011;60843;52.062;4.508;2024-02-21T14:04:42;6.72;;;3.30;;
72728;SDS011;60843;52.062;4.508;2024-02-21T14:07:07;20.30;;;3.17;;
72728;SDS011;60843;52.062;4.508;2024-02-21T14:09:33;9.27;;;4.30;;
72728;SDS011;60843;52.062;4.508;2024-02-21T14:11:59;8.05;;;3.45;;
72728;SDS011;60843;52.062;4.508;2024-02-21T14:14:25;11.18;;;4.38;;
72728;SDS011;60843;52.062;4.508;2024-02-21T14:16:50;8.13;;;3.50;;
72728;SDS011;60843;52.062;4.508;2024-02-21T14:19:16;8.93;;;4.50;;
72728;SDS011;60843;52.062;4.508;2024-02-21T14:21:42;9.45;;;3.97;;
72728;SDS011;60843;52.062;4.508;2024-02-21T14:24:08;8.20;;;4.38;;
72728;SDS011;60843;52.062;4.508;2024-02-21T14:26:33;5.43;;;3.25;;
72728;SDS011;60843;52.062;4.508;2024-02-21T14:29:00;7.05;;;3.78;;
72728;SDS011;60843;52.062;4.508;2024-02-21T14:31:28;5.00;;;2.92;;
72728;SDS011;60843;52.062;4.508;2024-02-21T14:33:56;4.45;;;3.08;;
72728;SDS011;60843;52.062;4.508;2024-02-21T14:36:21;10.80;;;4.60;;
72728;SDS011;60843;52.062;4.508;2024-02-21T14:38:49;7.32;;;3.35;;
72728;SDS011;60843;52.062;4.508;2024-02-21T14:41:14;4.57;;;2.45;;
72728;SDS011;60843;52.062;4.508;2024-02-21T14:43:40;6.93;;;3.28;;
72728;SDS011;60843;52.062;4.508;2024-02-21T14:46:05;7.00;;;2.75;;
72728;SDS011;60843;52.062;4.508;2024-02-21T14:48:34;7.50;;;4.00;;
72728;SDS011;60843;52.062;4.508;2024-02-21T14:51:01;6.13;;;3.10;;
72728;SDS011;60843;52.062;4.508;2024-02-21T14:53:26;8.13;;;3.47;;
72728;SDS011;60843;52.062;4.508;2024-02-21T14:55:52;8.70;;;3.70;;
72728;SDS011;60843;52.062;4.508;2024-02-21T14:58:18;8.20;;;3.22;;
72728;SDS011;60843;52.062;4.508;2024-02-21T15:00:44;7.97;;;3.35;;